createdAt,value
2023-02-18T00:02:23.016Z,38.53
2023-02-18T00:04:49.719Z,36.87
2023-02-18T00:07:16.403Z,36.70
2023-02-18T00:09:43.049Z,36.77
2023-02-18T00:12:09.680Z,38.13
2023-02-18T00:14:36.316Z,37.67
2023-02-18T00:17:02.965Z,38.00
2023-02-18T00:19:29.682Z,37.27
2023-02-18T00:21:56.376Z,35.50
2023-02-18T00:24:23.202Z,37.50
2023-02-18T00:26:53.595Z,36.03
2023-02-18T00:29:20.622Z,37.73
2023-02-18T00:31:47.448Z,35.93
2023-02-18T00:34:14.417Z,36.03
2023-02-18T00:36:41.327Z,34.60
2023-02-18T00:39:10.006Z,35.90
2023-02-18T00:41:37.577Z,35.97
2023-02-18T00:44:04.835Z,36.77
2023-02-18T00:46:31.713Z,36.03
2023-02-18T00:48:58.435Z,36.27
2023-02-18T00:51:25.588Z,36.77
2023-02-18T00:53:52.808Z,36.23
2023-02-18T00:56:19.701Z,37.23
2023-02-18T00:58:46.518Z,37.23
2023-02-18T01:01:13.640Z,37.73
2023-02-18T01:03:41.884Z,38.00
2023-02-18T01:06:11.085Z,39.00
2023-02-18T01:08:39.745Z,38.57
2023-02-18T01:11:08.245Z,37.20
2023-02-18T01:13:35.755Z,38.70
2023-02-18T01:16:02.709Z,36.03
2023-02-18T01:18:29.895Z,35.53
2023-02-18T01:20:57.414Z,35.83
2023-02-18T01:23:24.432Z,36.27
2023-02-18T01:25:51.704Z,34.70
2023-02-18T01:28:19.111Z,33.43
2023-02-18T01:30:45.814Z,34.10
2023-02-18T01:33:12.516Z,33.10
2023-02-18T01:35:40.875Z,32.77
2023-02-18T01:38:07.994Z,33.77
2023-02-18T01:40:34.878Z,35.17
2023-02-18T01:43:01.661Z,33.33
2023-02-18T01:45:34.593Z,36.17
2023-02-18T01:48:10.263Z,32.57
2023-02-18T01:50:41.646Z,33.63
2023-02-18T01:53:08.755Z,33.47
2023-02-18T01:55:36.885Z,35.10
2023-02-18T01:58:03.961Z,34.53
2023-02-18T02:00:32.699Z,33.13
2023-02-18T02:02:59.484Z,34.60
2023-02-18T02:05:32.082Z,35.70
2023-02-18T02:07:59.530Z,33.70
2023-02-18T02:10:37.111Z,35.73
2023-02-18T02:13:09.489Z,33.07
2023-02-18T02:15:41.595Z,33.13
2023-02-18T02:18:12.310Z,30.53
2023-02-18T02:21:10.057Z,32.50
2023-02-18T02:23:45.815Z,31.63
2023-02-18T02:26:49.286Z,28.40
2023-02-18T02:29:38.432Z,27.23
2023-02-18T02:32:14.324Z,28.73
2023-02-18T02:35:06.642Z,25.13
2023-02-18T02:37:41.889Z,21.30
2023-02-18T02:40:28.450Z,21.80
2023-02-18T02:43:12.949Z,22.93
2023-02-18T02:46:12.307Z,22.87
2023-02-18T02:49:08.357Z,22.00
2023-02-18T02:51:54.279Z,24.77
2023-02-18T02:54:24.259Z,23.87
2023-02-18T02:57:04.256Z,24.73
2023-02-18T02:59:31.366Z,24.40
2023-02-18T03:02:33.896Z,24.27
2023-02-18T03:05:03.518Z,24.10
2023-02-18T03:07:51.966Z,26.57
2023-02-18T03:10:44.174Z,26.40
2023-02-18T03:13:46.413Z,27.20
2023-02-18T03:16:13.080Z,29.80
2023-02-18T03:18:42.736Z,29.57
2023-02-18T03:21:11.849Z,28.97
2023-02-18T03:24:00.238Z,29.33
2023-02-18T03:26:30.338Z,28.37
2023-02-18T03:29:01.282Z,29.33
2023-02-18T03:31:30.146Z,29.20
2023-02-18T03:34:04.162Z,31.17
2023-02-18T03:36:32.910Z,30.33
2023-02-18T03:39:04.597Z,29.63
2023-02-18T03:41:31.476Z,30.37
2023-02-18T03:44:04.671Z,31.67
2023-02-18T03:46:32.258Z,29.67
2023-02-18T03:48:59.071Z,32.50
2023-02-18T03:51:25.733Z,31.73
2023-02-18T03:53:52.400Z,31.67
2023-02-18T03:56:21.354Z,30.90
2023-02-18T03:58:48.269Z,31.23
2023-02-18T04:01:15.406Z,30.93
2023-02-18T04:03:42.267Z,26.07
2023-02-18T04:06:09.681Z,25.67
2023-02-18T04:08:36.716Z,25.80
2023-02-18T04:11:05.026Z,23.60
2023-02-18T04:13:32.264Z,22.43
2023-02-18T04:15:58.954Z,21.17
2023-02-18T04:18:25.614Z,19.43
2023-02-18T04:20:52.327Z,17.20
2023-02-18T04:23:19.109Z,15.93
2023-02-18T04:25:45.857Z,13.17
2023-02-18T04:28:15.283Z,12.60
2023-02-18T04:30:42.458Z,10.80
2023-02-18T04:33:09.272Z,10.73
2023-02-18T04:35:36.779Z,10.20
2023-02-18T04:38:03.763Z,9.90
2023-02-18T04:40:30.704Z,9.90
2023-02-18T04:42:58.282Z,9.03
2023-02-18T04:45:26.035Z,8.90
2023-02-18T04:47:53.125Z,8.70
2023-02-18T04:50:21.533Z,9.03
2023-02-18T04:52:48.220Z,7.87
2023-02-18T04:55:14.939Z,8.60
2023-02-18T04:57:41.603Z,9.07
2023-02-18T05:00:11.270Z,8.57
2023-02-18T05:02:38.238Z,8.10
2023-02-18T05:05:05.850Z,8.10
2023-02-18T05:07:32.647Z,7.80
2023-02-18T05:09:59.298Z,7.77
2023-02-18T05:12:26.092Z,7.37
2023-02-18T05:14:52.751Z,7.37
2023-02-18T05:17:19.447Z,8.43
2023-02-18T05:19:46.117Z,7.60
2023-02-18T05:22:12.764Z,7.53
2023-02-18T05:24:39.439Z,6.67
2023-02-18T05:27:06.063Z,7.17
2023-02-18T05:29:32.723Z,7.10
2023-02-18T05:31:59.398Z,7.27
2023-02-18T05:34:26.119Z,6.93
2023-02-18T05:36:52.755Z,7.37
2023-02-18T05:39:19.435Z,6.90
2023-02-18T05:41:46.088Z,7.37
2023-02-18T05:44:30.897Z,7.17
2023-02-18T05:46:59.267Z,6.90
2023-02-18T05:49:26.078Z,7.47
2023-02-18T05:51:52.744Z,7.50
2023-02-18T05:54:19.696Z,7.17
2023-02-18T05:56:46.470Z,7.53
2023-02-18T05:59:13.826Z,8.07
2023-02-18T06:01:40.888Z,7.10
2023-02-18T06:04:07.853Z,7.03
2023-02-18T06:06:35.137Z,7.07
2023-02-18T06:09:02.060Z,7.00
2023-02-18T06:11:28.718Z,6.90
2023-02-18T06:13:55.395Z,6.60
2023-02-18T06:16:22.141Z,7.23
2023-02-18T06:18:48.850Z,6.83
2023-02-18T06:21:15.748Z,7.63
2023-02-18T06:23:42.415Z,8.07
2023-02-18T06:26:09.519Z,8.33
2023-02-18T06:28:36.396Z,8.30
2023-02-18T06:31:03.340Z,10.20
2023-02-18T06:33:30.096Z,10.83
2023-02-18T06:36:03.187Z,13.03
2023-02-18T06:38:30.018Z,12.70
2023-02-18T06:40:56.724Z,14.10
2023-02-18T06:43:23.408Z,15.30
2023-02-18T06:45:50.223Z,15.20
2023-02-18T06:48:17.032Z,16.57
2023-02-18T06:50:43.807Z,18.30
2023-02-18T06:53:10.961Z,17.00
2023-02-18T06:55:38.687Z,18.33
2023-02-18T06:58:05.729Z,18.20
2023-02-18T07:00:32.500Z,19.90
2023-02-18T07:02:59.249Z,18.13
2023-02-18T07:05:26.146Z,19.40
2023-02-18T07:07:52.833Z,19.20
2023-02-18T07:10:19.756Z,18.37
2023-02-18T07:12:46.587Z,18.33
2023-02-18T07:15:13.280Z,19.57
2023-02-18T07:17:39.964Z,19.20
2023-02-18T07:20:07.480Z,18.13
2023-02-18T07:22:34.130Z,18.10
2023-02-18T07:25:00.838Z,18.67
2023-02-18T07:27:27.599Z,16.70
2023-02-18T07:29:54.957Z,15.67
2023-02-18T07:32:21.806Z,15.03
2023-02-18T07:34:48.451Z,12.63
2023-02-18T07:37:15.097Z,10.10
2023-02-18T07:39:43.194Z,10.43
2023-02-18T07:42:11.108Z,9.80
2023-02-18T07:44:38.385Z,9.73
2023-02-18T07:47:06.806Z,10.40
2023-02-18T07:49:34.624Z,9.17
2023-02-18T07:52:01.866Z,11.07
2023-02-18T07:54:29.292Z,11.83
2023-02-18T07:56:55.930Z,12.13
2023-02-18T07:59:22.748Z,13.03
2023-02-18T08:01:49.409Z,14.73
2023-02-18T08:04:16.329Z,13.53
2023-02-18T08:06:48.376Z,13.23
2023-02-18T08:09:16.041Z,13.27
2023-02-18T08:11:43.002Z,13.17
2023-02-18T08:14:09.772Z,14.87
2023-02-18T08:16:36.525Z,15.07
2023-02-18T08:19:04.012Z,15.87
2023-02-18T08:21:31.237Z,14.40
2023-02-18T08:23:59.410Z,14.67
2023-02-18T08:26:26.674Z,15.47
2023-02-18T08:28:53.368Z,15.07
2023-02-18T08:31:25.031Z,16.43
2023-02-18T08:33:53.705Z,16.17
2023-02-18T08:36:21.020Z,15.10
2023-02-18T08:38:47.733Z,16.13
2023-02-18T08:41:14.894Z,15.13
2023-02-18T08:43:42.542Z,14.73
2023-02-18T08:46:15.802Z,15.00
2023-02-18T08:48:44.317Z,15.23
2023-02-18T08:51:22.279Z,14.63
2023-02-18T08:53:49.862Z,12.43
2023-02-18T08:56:17.703Z,13.73
2023-02-18T08:58:44.519Z,14.07
2023-02-18T09:01:13.027Z,12.87
2023-02-18T09:03:40.253Z,11.57
2023-02-18T09:06:07.209Z,11.53
2023-02-18T09:08:34.012Z,9.80
2023-02-18T09:11:04.457Z,10.60
2023-02-18T09:13:31.884Z,10.13
2023-02-18T09:16:04.460Z,8.53
2023-02-18T09:18:32.398Z,8.80
2023-02-18T09:21:00.525Z,8.90
2023-02-18T09:23:28.716Z,9.97
2023-02-18T09:25:55.755Z,10.40
2023-02-18T09:28:22.859Z,9.07
2023-02-18T09:30:49.682Z,10.33
2023-02-18T09:33:16.952Z,8.20
2023-02-18T09:35:45.695Z,10.13
2023-02-18T09:38:15.335Z,9.50
2023-02-18T09:40:53.621Z,9.60
2023-02-18T09:43:32.059Z,9.87
2023-02-18T09:46:00.301Z,10.47
2023-02-18T09:48:31.190Z,9.73
2023-02-18T09:50:58.147Z,10.70
2023-02-18T09:53:25.750Z,9.20
2023-02-18T09:55:54.871Z,9.43
2023-02-18T09:58:25.867Z,9.40
2023-02-18T10:01:08.348Z,9.33
2023-02-18T10:03:35.311Z,8.80
2023-02-18T10:06:15.900Z,10.30
2023-02-18T10:08:48.467Z,9.27
2023-02-18T10:11:35.483Z,9.40
2023-02-18T10:14:04.075Z,9.13
2023-02-18T10:16:31.195Z,10.10
2023-02-18T10:19:01.142Z,9.83
2023-02-18T10:21:31.360Z,9.03
2023-02-18T10:24:17.568Z,8.20
2023-02-18T10:26:44.213Z,7.97
2023-02-18T10:29:16.854Z,8.17
2023-02-18T10:31:53.427Z,8.60
2023-02-18T10:34:28.567Z,8.30
2023-02-18T10:37:24.492Z,8.37
2023-02-18T10:40:13.009Z,9.00
2023-02-18T10:43:13.904Z,9.80
2023-02-18T10:45:48.703Z,8.40
2023-02-18T10:48:52.899Z,8.43
2023-02-18T10:51:25.938Z,7.83
2023-02-18T10:53:53.811Z,7.60
2023-02-18T10:56:35.346Z,6.17
2023-02-18T10:59:20.348Z,6.77
2023-02-18T11:01:58.538Z,5.97
2023-02-18T11:04:44.095Z,5.73
2023-02-18T11:07:21.248Z,6.10
2023-02-18T11:09:56.195Z,4.93
2023-02-18T11:12:27.399Z,4.43
2023-02-18T11:15:17.047Z,5.07
2023-02-18T11:17:48.664Z,4.50
2023-02-18T11:20:30.506Z,4.33
2023-02-18T11:22:59.576Z,4.60
2023-02-18T11:25:33.144Z,4.17
2023-02-18T11:28:03.221Z,4.37
2023-02-18T11:30:46.800Z,4.07
2023-02-18T11:33:42.453Z,4.13
2023-02-18T11:36:29.934Z,4.53
2023-02-18T11:38:59.310Z,4.17
2023-02-18T11:41:39.749Z,3.90
2023-02-18T11:44:17.956Z,4.17
2023-02-18T11:47:20.080Z,3.67
2023-02-18T11:50:01.317Z,4.17
2023-02-18T11:52:34.135Z,2.93
2023-02-18T11:55:30.617Z,2.90
2023-02-18T11:58:00.186Z,4.00
2023-02-18T12:00:47.746Z,3.10
2023-02-18T12:03:21.447Z,3.10
2023-02-18T12:05:48.653Z,3.23
2023-02-18T12:08:24.220Z,3.20
2023-02-18T12:11:00.108Z,3.20
2023-02-18T12:13:33.195Z,2.57
2023-02-18T12:16:26.698Z,3.30
2023-02-18T12:19:17.800Z,3.50
2023-02-18T12:22:02.972Z,2.77
2023-02-18T12:24:35.778Z,3.07
2023-02-18T12:27:28.235Z,3.23
2023-02-18T12:30:05.590Z,2.57
2023-02-18T12:32:46.377Z,3.47
2023-02-18T12:35:40.110Z,2.93
2023-02-18T12:38:44.531Z,2.70
2023-02-18T12:41:39.780Z,3.53
2023-02-18T12:44:12.229Z,2.73
2023-02-18T12:46:57.275Z,3.23
2023-02-18T12:49:47.659Z,4.37
2023-02-18T12:52:53.030Z,3.60
2023-02-18T12:55:35.080Z,3.00
2023-02-18T12:58:28.625Z,3.43
2023-02-18T13:01:21.386Z,3.53
2023-02-18T13:04:21.793Z,3.00
2023-02-18T13:07:23.624Z,3.20
2023-02-18T13:10:21.589Z,2.93
2023-02-18T13:13:12.578Z,3.00
2023-02-18T13:15:54.976Z,3.10
2023-02-18T13:18:28.167Z,2.60
2023-02-18T13:21:07.538Z,2.73
2023-02-18T13:23:51.892Z,3.57
2023-02-18T13:26:21.076Z,2.60
2023-02-18T13:29:05.712Z,3.33
2023-02-18T13:31:55.953Z,3.23
2023-02-18T13:34:25.656Z,3.00
2023-02-18T13:37:03.555Z,2.30
2023-02-18T13:39:31.322Z,2.20
2023-02-18T13:42:24.421Z,2.37
2023-02-18T13:44:56.794Z,2.43
2023-02-18T13:47:35.653Z,2.50
2023-02-18T13:50:14.880Z,2.40
2023-02-18T13:52:41.754Z,2.20
2023-02-18T13:55:20.386Z,2.30
2023-02-18T13:57:54.593Z,3.10
2023-02-18T14:00:34.356Z,2.90
2023-02-18T14:03:35.976Z,3.43
2023-02-18T14:06:14.404Z,3.60
2023-02-18T14:08:41.335Z,2.67
2023-02-18T14:11:14.314Z,4.43
2023-02-18T14:13:56.010Z,4.17
2023-02-18T14:16:22.760Z,2.87
2023-02-18T14:18:59.738Z,2.90
2023-02-18T14:21:43.740Z,2.70
2023-02-18T14:24:11.920Z,2.17
2023-02-18T14:26:48.620Z,3.10
2023-02-18T14:29:27.358Z,2.40
2023-02-18T14:32:01.952Z,2.30
2023-02-18T14:35:00.866Z,3.60
2023-02-18T14:37:57.500Z,2.30
2023-02-18T14:40:33.821Z,2.27
2023-02-18T14:43:19.016Z,2.17
2023-02-18T14:46:25.317Z,2.30
2023-02-18T14:49:37.383Z,2.40
2023-02-18T14:52:06.610Z,2.90
2023-02-18T14:54:33.594Z,2.77
2023-02-18T14:57:17.043Z,2.57
2023-02-18T14:59:45.672Z,2.67
2023-02-18T15:02:23.580Z,2.47
2023-02-18T15:04:50.656Z,2.70
2023-02-18T15:07:20.796Z,3.23
2023-02-18T15:09:54.190Z,3.23
2023-02-18T15:12:25.620Z,4.63
2023-02-18T15:14:54.638Z,2.60
2023-02-18T15:17:25.048Z,4.60
2023-02-18T15:19:55.552Z,3.23
2023-02-18T15:22:24.493Z,3.60
2023-02-18T15:24:53.799Z,3.17
2023-02-18T15:27:24.657Z,2.73
2023-02-18T15:30:29.154Z,2.63
2023-02-18T15:32:58.584Z,2.73
2023-02-18T15:35:32.917Z,3.00
2023-02-18T15:38:01.274Z,2.40
2023-02-18T15:40:31.945Z,3.40
2023-02-18T15:43:02.111Z,2.23
2023-02-18T15:45:38.934Z,2.40
2023-02-18T15:48:06.158Z,2.80
2023-02-18T15:50:38.461Z,2.70
2023-02-18T15:53:13.843Z,2.87
2023-02-18T15:55:43.105Z,3.47
2023-02-18T15:58:21.204Z,2.67
2023-02-18T16:00:52.612Z,3.03
2023-02-18T16:03:28.824Z,2.80
2023-02-18T16:06:19.429Z,3.13
2023-02-18T16:09:18.217Z,2.90
2023-02-18T16:12:02.069Z,3.00
2023-02-18T16:14:46.326Z,3.67
2023-02-18T16:17:12.970Z,3.70
2023-02-18T16:19:51.634Z,3.50
2023-02-18T16:22:43.096Z,2.93
2023-02-18T16:25:17.661Z,3.23
2023-02-18T16:28:17.316Z,3.10
2023-02-18T16:30:46.089Z,3.50
2023-02-18T16:33:13.013Z,4.00
2023-02-18T16:35:49.666Z,4.53
2023-02-18T16:38:20.245Z,4.63
2023-02-18T16:40:47.013Z,3.87
2023-02-18T16:43:16.362Z,3.90
2023-02-18T16:45:56.018Z,4.10
2023-02-18T16:48:40.612Z,4.37
2023-02-18T16:51:13.656Z,4.00
2023-02-18T16:53:40.429Z,4.97
2023-02-18T16:56:18.203Z,5.07
2023-02-18T16:58:45.208Z,6.20
2023-02-18T17:01:29.661Z,6.40
2023-02-18T17:04:00.936Z,4.30
2023-02-18T17:06:28.979Z,4.40
2023-02-18T17:08:56.069Z,5.13
2023-02-18T17:11:34.540Z,4.73
2023-02-18T17:14:04.903Z,4.27
2023-02-18T17:16:31.868Z,4.30
2023-02-18T17:18:58.533Z,4.67
2023-02-18T17:21:25.858Z,6.07
2023-02-18T17:23:52.784Z,5.87
2023-02-18T17:26:25.396Z,19.43
2023-02-18T17:28:53.233Z,6.77
2023-02-18T17:31:55.086Z,4.73
2023-02-18T17:34:27.757Z,12.87
2023-02-18T17:36:54.503Z,11.97
2023-02-18T17:39:21.533Z,7.10
2023-02-18T17:41:48.572Z,9.60
2023-02-18T17:44:15.595Z,8.80
2023-02-18T17:46:42.360Z,7.10
2023-02-18T17:49:09.383Z,6.13
2023-02-18T17:51:38.233Z,6.63
2023-02-18T17:54:19.731Z,6.37
2023-02-18T17:56:46.925Z,7.40
2023-02-18T17:59:14.090Z,7.57
2023-02-18T18:01:41.034Z,6.93
2023-02-18T18:04:16.282Z,7.90
2023-02-18T18:06:43.523Z,7.87
2023-02-18T18:09:10.332Z,8.37
2023-02-18T18:11:37.788Z,8.10
2023-02-18T18:14:04.683Z,7.80
2023-02-18T18:16:31.397Z,9.30
2023-02-18T18:18:58.138Z,8.50
2023-02-18T18:21:35.513Z,8.77
2023-02-18T18:24:02.355Z,9.43
2023-02-18T18:26:29.869Z,11.20
2023-02-18T18:28:56.571Z,11.00
2023-02-18T18:31:23.523Z,10.07
2023-02-18T18:33:52.990Z,11.50
2023-02-18T18:36:21.388Z,11.03
2023-02-18T18:38:48.069Z,10.10
2023-02-18T18:41:17.365Z,11.27
2023-02-18T18:43:44.485Z,12.47
2023-02-18T18:46:11.285Z,12.87
2023-02-18T18:48:38.079Z,13.70
2023-02-18T18:51:05.282Z,13.97
2023-02-18T18:53:35.471Z,13.83
2023-02-18T18:56:07.120Z,14.93
2023-02-18T18:58:34.088Z,14.30
2023-02-18T19:01:03.514Z,16.17
2023-02-18T19:03:31.307Z,15.70
2023-02-18T19:05:58.173Z,14.97
2023-02-18T19:08:25.132Z,15.40
2023-02-18T19:10:54.093Z,11.40
2023-02-18T19:13:24.292Z,11.63
2023-02-18T19:15:59.153Z,12.37
2023-02-18T19:18:25.883Z,10.17
2023-02-18T19:20:52.539Z,9.57
2023-02-18T19:23:19.251Z,11.80
2023-02-18T19:25:45.980Z,12.40
2023-02-18T19:28:13.893Z,16.27
2023-02-18T19:30:44.079Z,17.33
2023-02-18T19:33:13.175Z,19.53
2023-02-18T19:35:41.330Z,19.60
2023-02-18T19:38:12.422Z,19.63
2023-02-18T19:40:39.530Z,21.60
2023-02-18T19:43:07.319Z,20.27
2023-02-18T19:45:35.365Z,21.60
2023-02-18T19:48:02.061Z,21.80
2023-02-18T19:50:32.336Z,22.87
2023-02-18T19:52:59.954Z,24.00
2023-02-18T19:55:26.692Z,24.93
2023-02-18T19:57:53.750Z,25.30
2023-02-18T20:00:22.504Z,26.30
2023-02-18T20:02:50.452Z,26.10
2023-02-18T20:05:17.835Z,27.77
2023-02-18T20:07:46.690Z,28.23
2023-02-18T20:10:16.628Z,29.00
2023-02-18T20:12:43.860Z,28.57
2023-02-18T20:15:10.667Z,31.90
2023-02-18T20:17:39.267Z,34.77
2023-02-18T20:20:06.573Z,32.30
2023-02-18T20:22:33.376Z,32.07
2023-02-18T20:25:00.185Z,32.57
2023-02-18T20:27:26.862Z,29.93
2023-02-18T20:29:53.547Z,32.60
2023-02-18T20:32:20.271Z,30.87
2023-02-18T20:34:47.022Z,33.37
2023-02-18T20:37:13.768Z,34.03
2023-02-18T20:39:40.548Z,34.13
2023-02-18T20:42:16.000Z,32.73
2023-02-18T20:44:43.823Z,32.17
2023-02-18T20:47:12.777Z,29.73
2023-02-18T20:49:40.583Z,30.47
2023-02-18T20:52:08.559Z,27.53
2023-02-18T20:54:35.281Z,27.90
2023-02-18T20:57:02.258Z,28.90
2023-02-18T20:59:35.649Z,27.17
2023-02-18T21:02:02.763Z,25.23
2023-02-18T21:04:29.547Z,24.97
2023-02-18T21:06:56.366Z,23.53
2023-02-18T21:09:23.104Z,23.40
2023-02-18T21:11:49.769Z,23.13
2023-02-18T21:14:16.474Z,25.20
2023-02-18T21:16:43.270Z,23.77
2023-02-18T21:19:15.412Z,23.67
2023-02-18T21:21:42.931Z,24.53
2023-02-18T21:24:10.003Z,23.17
2023-02-18T21:26:37.104Z,24.03
2023-02-18T21:29:07.910Z,22.57
2023-02-18T21:31:40.002Z,22.03
2023-02-18T21:34:09.885Z,21.90
2023-02-18T21:36:36.566Z,19.60
2023-02-18T21:39:06.570Z,20.47
2023-02-18T21:41:34.869Z,21.17
2023-02-18T21:44:02.489Z,21.03
2023-02-18T21:46:31.705Z,20.97
2023-02-18T21:49:02.082Z,20.50
2023-02-18T21:51:51.906Z,19.03
2023-02-18T21:54:20.870Z,18.00
2023-02-18T21:56:47.997Z,17.70
2023-02-18T21:59:14.919Z,17.63
2023-02-18T22:01:41.758Z,18.37
2023-02-18T22:04:08.612Z,17.63
2023-02-18T22:06:35.289Z,17.80
2023-02-18T22:09:03.362Z,17.53
2023-02-18T22:11:30.891Z,16.93
2023-02-18T22:13:57.938Z,14.97
2023-02-18T22:16:28.040Z,16.10
2023-02-18T22:18:57.965Z,15.93
2023-02-18T22:21:25.543Z,16.53
2023-02-18T22:23:52.659Z,17.73
2023-02-18T22:26:19.318Z,17.10
2023-02-18T22:28:51.827Z,17.83
2023-02-18T22:31:19.128Z,19.53
2023-02-18T22:33:48.854Z,19.67
2023-02-18T22:36:15.749Z,20.03
2023-02-18T22:38:42.655Z,22.00
2023-02-18T22:41:12.436Z,21.47
2023-02-18T22:43:39.631Z,23.43
2023-02-18T22:46:08.501Z,23.10
2023-02-18T22:48:37.420Z,25.27
2023-02-18T22:51:05.425Z,25.10
2023-02-18T22:53:32.420Z,24.63
2023-02-18T22:56:03.528Z,26.10
2023-02-18T22:58:30.439Z,23.47
2023-02-18T23:00:57.458Z,24.47
2023-02-18T23:03:25.401Z,24.50
2023-02-18T23:05:52.054Z,25.50
2023-02-18T23:08:18.800Z,25.60
2023-02-18T23:10:45.671Z,24.67
2023-02-18T23:13:12.482Z,25.53
2023-02-18T23:15:39.189Z,26.10
2023-02-18T23:18:05.932Z,24.23
2023-02-18T23:20:51.101Z,25.07
2023-02-18T23:23:17.797Z,24.57
2023-02-18T23:25:45.599Z,25.03
2023-02-18T23:28:12.265Z,24.33
2023-02-18T23:30:39.037Z,25.03
2023-02-18T23:33:05.845Z,24.20
2023-02-18T23:35:32.618Z,23.87
2023-02-18T23:38:05.565Z,23.33
2023-02-18T23:40:32.810Z,22.90
2023-02-18T23:42:59.554Z,24.67
2023-02-18T23:45:26.414Z,23.10
2023-02-18T23:47:53.182Z,23.17
2023-02-18T23:50:19.946Z,24.27
2023-02-18T23:52:48.654Z,23.33
2023-02-18T23:55:15.625Z,21.93
2023-02-18T23:57:42.291Z,21.93
